Time;durP1;ratioP1;P1;durP2;ratioP2;P2;SDS_P1;SDS_P2;PMS_P1;PMS_P2;Temp;Humidity;BMP_temperature;BMP_pressure;BME280_temperature;BME280_humidity;BME280_pressure;Samples;Min_cycle;Max_cycle;Signal;HPM_P1;HPM_P2
2023/06/21 00:01:38;;;;;;;19.75;16.45;;;23.90;72.60;;;;;;5077968;28;20474;-71
2023/06/21 00:04:08;;;;;;;20.10;17.08;;;23.90;72.60;;;;;;5078299;28;20081;-71
2023/06/21 00:06:36;;;;;;;21.08;17.13;;;23.90;72.60;;;;;;5077843;28;20395;-71
2023/06/21 00:09:03;;;;;;;22.90;17.25;;;23.90;72.70;;;;;;5078378;28;20430;-71
2023/06/21 00:11:33;;;;;;;19.95;15.38;;;23.90;72.60;;;;;;5078017;28;20024;-70
2023/06/21 00:13:59;;;;;;;25.08;19.90;;;23.80;72.60;;;;;;5078063;28;20033;-70
2023/06/21 00:16:25;;;;;;;21.38;17.45;;;23.80;73.00;;;;;;5077725;28;20403;-71
2023/06/21 00:18:51;;;;;;;20.02;17.00;;;23.80;72.90;;;;;;5077947;28;20029;-70
2023/06/21 00:21:17;;;;;;;26.08;20.52;;;23.80;72.70;;;;;;5077971;28;20043;-70
2023/06/21 00:23:43;;;;;;;24.15;19.20;;;23.80;72.90;;;;;;5077898;28;20033;-71
2023/06/21 00:26:10;;;;;;;22.52;17.52;;;23.70;73.20;;;;;;5077390;28;20125;-71
2023/06/21 00:28:36;;;;;;;21.90;17.55;;;23.70;73.10;;;;;;5077825;28;20470;-71
2023/06/21 00:31:03;;;;;;;19.30;15.68;;;23.70;73.00;;;;;;5077689;28;20107;-70
2023/06/21 00:33:29;;;;;;;21.08;16.83;;;23.70;72.90;;;;;;5077420;28;20043;-71
2023/06/21 00:35:55;;;;;;;21.65;17.05;;;23.70;72.90;;;;;;5077967;28;20021;-71
2023/06/21 00:38:21;;;;;;;21.98;16.92;;;23.70;72.90;;;;;;5077218;28;20373;-71
2023/06/21 00:40:49;;;;;;;20.58;16.80;;;23.60;72.80;;;;;;5077839;28;20078;-71
2023/06/21 00:43:16;;;;;;;21.52;16.55;;;23.60;72.90;;;;;;5077210;28;20349;-71
2023/06/21 00:45:45;;;;;;;23.88;18.23;;;23.60;72.90;;;;;;5077179;28;20074;-71
2023/06/21 00:48:11;;;;;;;19.77;16.23;;;23.60;73.10;;;;;;5077401;28;20039;-71
2023/06/21 00:50:40;;;;;;;21.88;17.05;;;23.50;73.00;;;;;;5077134;28;20071;-71
2023/06/21 00:53:07;;;;;;;23.75;20.10;;;23.50;73.00;;;;;;5076365;28;20032;-71
2023/06/21 00:55:33;;;;;;;24.40;17.85;;;23.50;73.20;;;;;;5059408;28;20032;-71
2023/06/21 00:57:59;;;;;;;31.08;24.75;;;23.50;73.30;;;;;;5076816;28;20112;-71
2023/06/21 01:00:25;;;;;;;25.42;19.75;;;23.40;73.80;;;;;;5076942;28;20052;-71
2023/06/21 01:02:55;;;;;;;26.20;20.17;;;23.30;73.50;;;;;;5076920;28;20028;-71
2023/06/21 01:05:23;;;;;;;21.65;18.42;;;23.30;73.60;;;;;;5077125;28;20125;-71
2023/06/21 01:08:07;;;;;;;20.98;17.13;;;23.30;73.60;;;;;;5076758;28;20037;-71
2023/06/21 01:11:04;;;;;;;20.73;16.33;;;23.30;73.60;;;;;;5076711;28;20033;-71
2023/06/21 01:13:49;;;;;;;20.58;16.63;;;23.20;73.70;;;;;;5077209;28;20078;-76
2023/06/21 01:16:18;;;;;;;21.33;17.02;;;23.20;73.60;;;;;;5076802;28;20036;-76
2023/06/21 01:18:46;;;;;;;23.10;18.90;;;23.30;73.50;;;;;;5077042;28;20082;-76
2023/06/21 01:21:19;;;;;;;22.80;18.42;;;23.20;73.60;;;;;;5076830;28;20044;-76
2023/06/21 01:23:54;;;;;;;20.35;16.85;;;23.20;73.70;;;;;;5076484;28;20021;-77
2023/06/21 01:26:38;;;;;;;20.30;16.48;;;23.10;73.70;;;;;;5076212;28;20048;-76
2023/06/21 01:29:07;;;;;;;22.30;16.13;;;23.10;73.80;;;;;;5076905;28;20147;-76
2023/06/21 01:31:33;;;;;;;21.25;16.63;;;23.10;73.70;;;;;;5076242;28;20039;-76
2023/06/21 01:34:01;;;;;;;23.17;16.52;;;23.10;73.80;;;;;;5076534;28;20043;-77
2023/06/21 01:36:27;;;;;;;21.92;17.08;;;23.10;73.70;;;;;;5076614;28;20047;-76
2023/06/21 01:38:56;;;;;;;21.67;16.50;;;23.10;73.70;;;;;;5076722;28;20442;-76
2023/06/21 01:41:23;;;;;;;20.05;15.55;;;23.10;73.80;;;;;;5076138;28;20078;-77
2023/06/21 01:43:49;;;;;;;19.92;16.13;;;23.10;73.80;;;;;;5076078;28;20035;-76
2023/06/21 01:46:17;;;;;;;21.17;16.70;;;23.10;73.80;;;;;;5076254;28;20438;-76
2023/06/21 01:48:43;;;;;;;24.00;17.70;;;23.10;73.70;;;;;;5076009;28;20028;-76
2023/06/21 01:51:11;;;;;;;20.83;16.48;;;23.00;73.80;;;;;;5076135;28;20036;-77
2023/06/21 01:53:39;;;;;;;20.83;16.33;;;23.00;73.80;;;;;;5058292;28;20412;-76
2023/06/21 01:56:09;;;;;;;22.67;18.45;;;23.00;73.90;;;;;;5076023;28;20112;-76
2023/06/21 01:58:35;;;;;;;23.92;18.45;;;23.00;73.90;;;;;;5076339;28;20052;-76
2023/06/21 02:01:07;;;;;;;20.65;16.20;;;23.00;74.10;;;;;;5058123;28;20033;-76
2023/06/21 02:03:33;;;;;;;19.63;14.63;;;22.90;74.00;;;;;;5076171;28;20020;-71
2023/06/21 02:06:05;;;;;;;22.75;18.20;;;22.90;74.00;;;;;;5075276;28;20020;-71
2023/06/21 02:08:32;;;;;;;21.85;16.77;;;22.90;74.00;;;;;;5075915;28;20099;-77
2023/06/21 02:11:02;;;;;;;19.00;15.27;;;22.90;74.10;;;;;;5075715;28;20044;-76
2023/06/21 02:13:29;;;;;;;20.42;15.75;;;22.90;74.10;;;;;;5075787;28;20027;-76
2023/06/21 02:15:55;;;;;;;20.80;16.13;;;22.80;74.10;;;;;;5057887;28;20028;-77
2023/06/21 02:18:25;;;;;;;18.95;16.25;;;22.80;74.10;;;;;;5075429;28;20096;-76
2023/06/21 02:20:51;;;;;;;20.88;16.08;;;22.80;74.20;;;;;;5075676;28;20074;-72
2023/06/21 02:23:17;;;;;;;18.52;15.07;;;22.70;74.20;;;;;;5057820;28;20029;-72
2023/06/21 02:25:43;;;;;;;21.67;16.65;;;22.70;74.20;;;;;;5075247;28;20052;-71
2023/06/21 02:28:09;;;;;;;22.77;17.30;;;22.70;74.20;;;;;;5075517;28;20029;-71
2023/06/21 02:30:35;;;;;;;19.67;15.65;;;22.70;74.20;;;;;;5075353;28;20346;-72
2023/06/21 02:33:01;;;;;;;19.83;15.95;;;22.60;74.20;;;;;;5075146;28;20021;-72
2023/06/21 02:35:27;;;;;;;29.00;21.30;;;22.60;74.30;;;;;;5075527;28;20425;-71
2023/06/21 02:37:53;;;;;;;28.05;20.42;;;22.60;74.50;;;;;;5075262;28;20094;-72
2023/06/21 02:40:19;;;;;;;26.48;19.73;;;22.60;74.70;;;;;;5075446;28;20056;-71
2023/06/21 02:42:45;;;;;;;30.35;21.80;;;22.50;74.80;;;;;;5075151;28;20449;-71
2023/06/21 02:45:11;;;;;;;28.40;21.55;;;22.50;74.90;;;;;;5075456;28;20036;-71
2023/06/21 02:47:37;;;;;;;25.08;18.30;;;22.40;75.00;;;;;;5075599;28;20025;-71
2023/06/21 02:50:05;;;;;;;26.10;20.17;;;22.40;75.00;;;;;;5075069;28;20037;-71
2023/06/21 02:52:31;;;;;;;23.80;17.58;;;22.20;75.10;;;;;;5075052;28;20024;-71
2023/06/21 02:54:58;;;;;;;23.23;17.90;;;22.20;75.00;;;;;;5075050;28;20024;-71
2023/06/21 02:57:24;;;;;;;27.52;20.65;;;22.20;75.00;;;;;;5075232;28;20048;-72
2023/06/21 02:59:50;;;;;;;24.67;19.17;;;22.20;75.10;;;;;;5075300;28;20063;-71
2023/06/21 03:02:18;;;;;;;21.70;16.98;;;22.10;75.20;;;;;;5075226;28;20127;-71
2023/06/21 03:04:45;;;;;;;23.27;17.75;;;22.10;75.00;;;;;;5075235;28;20052;-71
2023/06/21 03:07:11;;;;;;;23.45;15.60;;;22.10;75.10;;;;;;5075155;28;20074;-71
2023/06/21 03:09:37;;;;;;;18.63;14.75;;;22.10;74.90;;;;;;5074959;28;20044;-70
2023/06/21 03:12:08;;;;;;;21.83;15.82;;;22.00;74.80;;;;;;5075336;28;20039;-71
2023/06/21 03:14:37;;;;;;;19.75;15.05;;;22.00;74.80;;;;;;5074849;28;20032;-71
2023/06/21 03:17:05;;;;;;;19.08;14.50;;;22.00;74.90;;;;;;5077539;28;20035;-72
2023/06/21 03:19:32;;;;;;;19.58;14.88;;;22.00;74.90;;;;;;5079160;28;20029;-70
2023/06/21 03:21:58;;;;;;;18.80;14.60;;;22.00;75.00;;;;;;5079105;28;20028;-70
2023/06/21 03:24:26;;;;;;;20.00;14.48;;;22.00;74.90;;;;;;5078850;28;20040;-71
2023/06/21 03:26:53;;;;;;;18.17;15.05;;;22.00;74.90;;;;;;5078543;28;20509;-71
2023/06/21 03:29:19;;;;;;;18.02;14.95;;;22.10;74.80;;;;;;5078604;28;20056;-71
2023/06/21 03:31:45;;;;;;;18.55;14.45;;;22.10;74.80;;;;;;5078818;28;20029;-71
2023/06/21 03:34:11;;;;;;;19.52;13.68;;;22.10;74.70;;;;;;5078866;28;20430;-71
2023/06/21 03:36:37;;;;;;;17.52;13.68;;;22.00;74.70;;;;;;5078729;28;20032;-70
2023/06/21 03:39:03;;;;;;;20.02;13.40;;;22.10;74.80;;;;;;5078435;28;20437;-71
2023/06/21 03:41:29;;;;;;;17.58;13.90;;;22.00;74.60;;;;;;5078649;28;20029;-71
2023/06/21 03:43:55;;;;;;;18.83;13.45;;;22.10;74.60;;;;;;5078968;28;20456;-71
2023/06/21 03:46:21;;;;;;;19.10;13.75;;;22.10;74.50;;;;;;5078716;28;20024;-71
2023/06/21 03:48:51;;;;;;;15.77;13.30;;;22.10;74.50;;;;;;5078245;28;20113;-71
2023/06/21 03:51:18;;;;;;;19.85;14.93;;;22.10;74.40;;;;;;5078512;28;20147;-71
2023/06/21 03:53:44;;;;;;;18.08;12.90;;;22.10;74.30;;;;;;5061093;28;20453;-71
2023/06/21 03:56:11;;;;;;;18.13;13.88;;;22.20;74.20;;;;;;5078380;28;20099;-75
2023/06/21 03:58:38;;;;;;;19.80;14.02;;;22.20;74.20;;;;;;5078093;28;20008;-70
2023/06/21 04:01:04;;;;;;;19.63;14.23;;;22.10;74.20;;;;;;5078532;28;20025;-71
2023/06/21 04:03:30;;;;;;;19.27;14.10;;;22.20;74.20;;;;;;5078044;28;20078;-76
2023/06/21 04:05:56;;;;;;;20.10;15.35;;;22.20;74.20;;;;;;5078210;28;20028;-76
2023/06/21 04:08:22;;;;;;;18.48;14.30;;;22.20;74.10;;;;;;5060203;28;20028;-75
2023/06/21 04:10:48;;;;;;;21.27;15.70;;;22.30;74.10;;;;;;5078379;28;20107;-70
2023/06/21 04:13:14;;;;;;;21.10;15.80;;;22.20;74.10;;;;;;5078302;28;20067;-70
2023/06/21 04:15:40;;;;;;;19.30;15.50;;;22.30;74.10;;;;;;5077824;28;20035;-71
2023/06/21 04:18:06;;;;;;;21.85;15.07;;;22.30;74.10;;;;;;5077996;28;20024;-71
2023/06/21 04:20:32;;;;;;;22.73;14.95;;;22.40;74.00;;;;;;5077723;28;20032;-76
2023/06/21 04:22:58;;;;;;;19.15;15.73;;;22.40;73.90;;;;;;5077912;28;20380;-76
2023/06/21 04:25:24;;;;;;;19.98;14.60;;;22.50;73.80;;;;;;5077710;28;20048;-76
2023/06/21 04:27:50;;;;;;;23.15;16.10;;;22.50;73.70;;;;;;5076525;28;20434;-76
2023/06/21 04:30:16;;;;;;;19.35;14.48;;;22.60;73.70;;;;;;5077821;28;20033;-76
2023/06/21 04:32:45;;;;;;;20.75;15.88;;;22.70;73.40;;;;;;5077690;28;20319;-76
2023/06/21 04:35:14;;;;;;;20.20;13.52;;;22.80;73.30;;;;;;5077530;28;20085;-71
2023/06/21 04:37:44;;;;;;;19.38;14.98;;;22.90;73.20;;;;;;5077244;28;20418;-71
2023/06/21 04:40:21;;;;;;;18.83;14.80;;;23.10;72.90;;;;;;5077410;28;20111;-71
2023/06/21 04:42:54;;;;;;;20.95;16.02;;;23.20;72.70;;;;;;5077881;28;20031;-71
2023/06/21 04:45:21;;;;;;;21.10;16.08;;;23.30;72.50;;;;;;5077342;28;20028;-71
2023/06/21 04:47:47;;;;;;;20.10;15.63;;;23.50;72.20;;;;;;5077125;28;20107;-71
2023/06/21 04:50:15;;;;;;;20.10;15.60;;;23.60;72.00;;;;;;5077516;28;20103;-71
2023/06/21 04:52:41;;;;;;;20.52;15.25;;;23.90;71.80;;;;;;5077366;28;20029;-71
2023/06/21 04:55:08;;;;;;;21.83;15.85;;;24.00;71.50;;;;;;5077628;28;20048;-71
2023/06/21 04:57:34;;;;;;;19.70;15.90;;;24.40;71.10;;;;;;5076989;28;20020;-71
2023/06/21 05:00:07;;;;;;;18.20;14.32;;;24.90;70.60;;;;;;5077207;28;20025;-71
2023/06/21 05:02:33;;;;;;;20.63;15.23;;;25.60;69.60;;;;;;5076924;28;20465;-71
2023/06/21 05:04:59;;;;;;;18.80;14.90;;;26.20;68.50;;;;;;5077245;28;20123;-72
2023/06/21 05:07:25;;;;;;;19.52;15.70;;;26.80;67.20;;;;;;5076873;28;20103;-72
2023/06/21 05:09:51;;;;;;;20.00;14.45;;;27.40;66.20;;;;;;5077041;28;20094;-71
2023/06/21 05:12:17;;;;;;;21.42;15.55;;;28.00;64.90;;;;;;5077165;28;20033;-72
2023/06/21 05:14:43;;;;;;;19.00;13.82;;;28.60;63.50;;;;;;5076665;28;20021;-72
2023/06/21 05:17:11;;;;;;;17.55;13.75;;;29.20;61.90;;;;;;5076568;28;20086;-76
2023/06/21 05:19:38;;;;;;;19.30;14.10;;;29.50;60.60;;;;;;5076520;28;20017;-76
2023/06/21 05:22:04;;;;;;;18.52;13.68;;;29.70;59.70;;;;;;5077099;28;20430;-75
2023/06/21 05:24:30;;;;;;;17.38;13.18;;;29.90;59.00;;;;;;5076743;28;20041;-69
2023/06/21 05:26:56;;;;;;;17.25;12.52;;;30.10;58.50;;;;;;5076678;28;20033;-70
2023/06/21 05:29:24;;;;;;;22.08;13.82;;;30.60;57.70;;;;;;5076602;28;20024;-69
2023/06/21 05:31:50;;;;;;;18.05;13.07;;;31.10;56.80;;;;;;5076445;28;20039;-68
2023/06/21 05:34:15;;;;;;;19.08;12.60;;;31.40;55.80;;;;;;5076259;28;20024;-68
2023/06/21 05:36:41;;;;;;;18.75;13.48;;;31.70;55.00;;;;;;5076376;28;20025;-69
2023/06/21 05:39:08;;;;;;;16.17;12.77;;;31.90;54.40;;;;;;5076439;28;20430;-69
2023/06/21 05:41:34;;;;;;;18.40;13.20;;;32.20;53.90;;;;;;5076331;28;20186;-70
2023/06/21 05:44:00;;;;;;;15.82;12.77;;;32.50;53.40;;;;;;5076601;28;20032;-71
2023/06/21 05:46:27;;;;;;;20.52;13.05;;;32.70;52.90;;;;;;5076047;28;20059;-76
2023/06/21 05:48:53;;;;;;;17.80;12.20;;;32.90;52.50;;;;;;5076239;28;20133;-71
2023/06/21 05:51:19;;;;;;;15.73;12.07;;;32.90;52.10;;;;;;5075850;28;20040;-71
2023/06/21 05:53:45;;;;;;;14.35;11.88;;;33.00;51.80;;;;;;5076382;28;20036;-71
2023/06/21 05:56:11;;;;;;;19.35;12.60;;;33.40;51.60;;;;;;5075724;28;20438;-71
2023/06/21 05:58:37;;;;;;;18.98;12.00;;;33.80;51.00;;;;;;5076141;28;20119;-70
2023/06/21 06:01:03;;;;;;;18.80;12.70;;;34.30;50.30;;;;;;5075952;28;20107;-70
2023/06/21 06:03:29;;;;;;;16.98;12.13;;;34.60;49.70;;;;;;5075903;28;20017;-70
2023/06/21 06:05:55;;;;;;;16.75;12.10;;;34.90;48.90;;;;;;5075621;28;20021;-70
2023/06/21 06:08:21;;;;;;;14.57;11.45;;;35.20;48.40;;;;;;5075700;28;20021;-71
2023/06/21 06:10:48;;;;;;;15.32;11.68;;;35.50;47.80;;;;;;5075974;28;20032;-71
2023/06/21 06:13:14;;;;;;;14.05;11.10;;;35.90;47.10;;;;;;5075344;28;20054;-70
2023/06/21 06:15:40;;;;;;;14.50;10.60;;;36.10;46.40;;;;;;5075472;28;20020;-71
2023/06/21 06:18:06;;;;;;;12.30;10.15;;;36.40;45.90;;;;;;5075779;28;20316;-71
2023/06/21 06:20:32;;;;;;;14.52;10.82;;;36.70;45.20;;;;;;5075294;28;20025;-71
2023/06/21 06:23:00;;;;;;;14.23;10.20;;;37.00;44.60;;;;;;5075824;28;20029;-71
2023/06/21 06:25:27;;;;;;;15.20;10.20;;;37.10;43.50;;;;;;5075196;28;20076;-76
2023/06/21 06:27:53;;;;;;;14.20;10.40;;;36.90;43.30;;;;;;5075201;28;20377;-71
2023/06/21 06:30:19;;;;;;;13.40;10.50;;;36.60;43.50;;;;;;5075760;28;20047;-76
2023/06/21 06:32:47;;;;;;;15.52;11.25;;;36.20;43.80;;;;;;5075115;28;20024;-75
2023/06/21 06:35:13;;;;;;;14.63;10.50;;;35.90;44.10;;;;;;5075168;28;20025;-75
2023/06/21 06:37:40;;;;;;;12.95;9.98;;;35.60;44.30;;;;;;5057353;28;20020;-74
2023/06/21 06:40:06;;;;;;;13.18;10.52;;;35.50;44.50;;;;;;5075138;28;20520;-71
2023/06/21 06:42:33;;;;;;;14.00;9.98;;;35.30;44.70;;;;;;5075348;28;20067;-71
2023/06/21 06:44:59;;;;;;;17.98;11.88;;;35.10;45.10;;;;;;5075064;28;20032;-70
2023/06/21 06:47:28;;;;;;;15.25;10.55;;;34.90;45.30;;;;;;5074995;28;20037;-70
2023/06/21 06:49:55;;;;;;;15.57;10.65;;;34.60;45.70;;;;;;5074935;28;20039;-70
2023/06/21 06:52:21;;;;;;;15.93;11.40;;;34.40;46.20;;;;;;5074411;28;20020;-70
2023/06/21 06:54:47;;;;;;;15.30;11.25;;;34.20;46.60;;;;;;5075139;28;20070;-75
2023/06/21 06:57:13;;;;;;;16.17;12.27;;;34.00;46.80;;;;;;5074790;28;20039;-75
2023/06/21 06:59:38;;;;;;;15.82;12.07;;;33.90;46.90;;;;;;5074866;28;20020;-76
2023/06/21 07:02:05;;;;;;;16.52;12.68;;;33.90;47.00;;;;;;5074913;28;20079;-75
2023/06/21 07:04:31;;;;;;;18.40;11.50;;;33.80;47.20;;;;;;5075088;28;20044;-75
2023/06/21 07:07:01;;;;;;;18.77;14.32;;;33.80;47.30;;;;;;5074704;28;20020;-74
2023/06/21 07:09:27;;;;;;;20.02;14.88;;;33.80;47.30;;;;;;5074716;28;20439;-75
2023/06/21 07:11:56;;;;;;;15.77;13.55;;;33.80;46.90;;;;;;5074605;28;20024;-76
2023/06/21 07:14:25;;;;;;;17.98;11.95;;;33.90;46.70;;;;;;5074743;28;20458;-75
2023/06/21 07:16:51;;;;;;;16.30;13.57;;;33.90;46.80;;;;;;5074677;28;20424;-75
2023/06/21 07:19:17;;;;;;;16.48;12.43;;;34.00;47.00;;;;;;5074991;28;20104;-75
2023/06/21 07:21:44;;;;;;;14.80;12.98;;;33.90;46.50;;;;;;5074923;28;20021;-70
2023/06/21 07:24:11;;;;;;;19.13;14.93;;;33.80;46.70;;;;;;5074692;28;20035;-75
2023/06/21 07:26:40;;;;;;;16.25;12.00;;;33.70;46.80;;;;;;5074504;28;20028;-75
2023/06/21 07:29:07;;;;;;;16.42;12.10;;;33.60;46.90;;;;;;5074573;28;20450;-75
2023/06/21 07:31:33;;;;;;;16.77;12.77;;;33.60;47.10;;;;;;5075057;28;20021;-75
2023/06/21 07:34:00;;;;;;;17.17;12.30;;;33.60;46.80;;;;;;5074802;28;20031;-75
2023/06/21 07:36:27;;;;;;;12.73;10.85;;;33.60;47.00;;;;;;5074453;28;20020;-75
2023/06/21 07:38:53;;;;;;;13.60;11.00;;;33.60;47.00;;;;;;5057175;28;20392;-75
2023/06/21 07:41:20;;;;;;;16.30;11.55;;;33.40;47.10;;;;;;5056815;28;20362;-70
2023/06/21 07:43:45;;;;;;;18.20;13.68;;;33.40;47.30;;;;;;5074475;28;20353;-70
2023/06/21 07:46:11;;;;;;;14.30;11.23;;;33.40;47.60;;;;;;5074377;28;20025;-70
2023/06/21 07:48:40;;;;;;;17.05;12.57;;;33.40;47.60;;;;;;5074476;28;20078;-70
2023/06/21 07:51:06;;;;;;;16.65;12.07;;;33.40;47.50;;;;;;5074372;28;20384;-71
2023/06/21 07:53:33;;;;;;;17.20;13.88;;;33.40;47.50;;;;;;5074434;28;20025;-70
2023/06/21 07:58:24;;;;;;;15.68;13.00;;;33.40;47.50;;;;;;5074605;28;20025;-70
2023/06/21 08:00:50;;;;;;;20.23;13.18;;;33.40;47.40;;;;;;5074665;28;20078;-70
2023/06/21 08:03:16;;;;;;;16.33;11.07;;;33.40;47.30;;;;;;5077187;28;20125;-70
2023/06/21 08:05:42;;;;;;;16.58;12.07;;;33.50;47.40;;;;;;5078004;28;20380;-70
2023/06/21 08:08:08;;;;;;;15.77;12.20;;;33.60;47.40;;;;;;5078140;28;20338;-70
2023/06/21 08:10:34;;;;;;;16.23;12.88;;;33.70;47.20;;;;;;5078393;28;20029;-70
2023/06/21 08:13:01;;;;;;;13.00;10.50;;;33.90;46.90;;;;;;5077770;28;20313;-71
2023/06/21 08:15:27;;;;;;;17.17;12.48;;;33.90;46.80;;;;;;5077755;28;20354;-75
2023/06/21 08:17:52;;;;;;;18.27;12.93;;;33.90;46.90;;;;;;5077751;28;20031;-76
2023/06/21 08:20:19;;;;;;;13.38;11.32;;;33.80;46.90;;;;;;5078231;28;20353;-76
2023/06/21 08:22:45;;;;;;;18.67;13.00;;;33.70;47.00;;;;;;5077922;28;20024;-76
2023/06/21 08:25:11;;;;;;;17.33;14.40;;;33.60;46.90;;;;;;5077620;28;20048;-76
2023/06/21 08:27:37;;;;;;;20.10;14.77;;;33.50;47.20;;;;;;5077604;28;20029;-76
2023/06/21 08:30:03;;;;;;;17.85;15.15;;;33.40;47.70;;;;;;5077566;28;20104;-75
2023/06/21 08:32:29;;;;;;;16.80;13.90;;;33.20;47.80;;;;;;5077923;28;20024;-76
2023/06/21 08:34:55;;;;;;;18.85;14.48;;;33.10;48.10;;;;;;5077359;28;20501;-71
2023/06/21 08:37:25;;;;;;;21.55;16.52;;;33.10;48.30;;;;;;5077407;28;20063;-71
2023/06/21 08:39:55;;;;;;;16.42;13.88;;;33.00;48.30;;;;;;5077100;28;20020;-71
2023/06/21 08:42:26;;;;;;;22.23;15.45;;;33.00;48.50;;;;;;5060642;28;20032;-71
2023/06/21 08:44:54;;;;;;;21.65;16.92;;;32.90;48.50;;;;;;5077238;28;20027;-71
2023/06/21 08:47:26;;;;;;;18.38;14.68;;;32.90;48.60;;;;;;5077410;28;20033;-71
2023/06/21 08:49:54;;;;;;;14.67;12.33;;;32.90;48.70;;;;;;5077514;28;20029;-71
2023/06/21 08:52:22;;;;;;;18.05;14.95;;;33.00;48.80;;;;;;5077049;28;20040;-75
2023/06/21 08:55:05;;;;;;;16.98;13.00;;;33.10;48.50;;;;;;5059744;28;20024;-71
2023/06/21 08:57:44;;;;;;;17.67;14.90;;;33.10;48.40;;;;;;5077194;28;20021;-76
2023/06/21 09:00:12;;;;;;;17.58;13.93;;;33.00;48.30;;;;;;5077578;28;20036;-71
2023/06/21 09:02:52;;;;;;;19.85;15.77;;;32.90;48.70;;;;;;5076858;28;20481;-71
2023/06/21 09:06:05;;;;;;;19.98;16.10;;;32.70;48.60;;;;;;5077431;28;20032;-71
2023/06/21 09:08:33;;;;;;;13.10;11.60;;;32.60;49.00;;;;;;4976334;28;20023;-71
2023/06/21 09:11:00;;;;;;;18.65;14.02;;;32.60;49.30;;;;;;4976414;28;20073;-76
2023/06/21 09:13:27;;;;;;;23.33;17.67;;;32.70;49.40;;;;;;4959759;28;20057;-76
2023/06/21 09:15:55;;;;;;;18.85;15.32;;;32.80;49.20;;;;;;4975438;28;20043;-70
2023/06/21 09:18:35;;;;;;;18.00;14.55;;;32.90;49.20;;;;;;4976032;28;20030;-75
2023/06/21 09:21:02;;;;;;;19.13;15.23;;;32.90;49.00;;;;;;4976094;28;20073;-74
2023/06/21 09:23:29;;;;;;;25.38;18.05;;;32.90;48.90;;;;;;4976210;28;20055;-75
2023/06/21 09:25:55;;;;;;;19.23;15.02;;;32.80;48.50;;;;;;5006069;28;20057;-71
2023/06/21 09:28:22;;;;;;;18.02;15.18;;;32.60;48.80;;;;;;5014742;28;20041;-76
2023/06/21 09:30:49;;;;;;;21.05;17.80;;;32.60;49.10;;;;;;4995860;28;20042;-71
2023/06/21 09:33:15;;;;;;;16.15;13.27;;;32.70;48.90;;;;;;4963213;28;20431;-71
2023/06/21 09:35:42;;;;;;;19.70;15.40;;;32.70;48.90;;;;;;4995521;28;20038;-76
2023/06/21 09:38:28;;;;;;;28.25;22.23;;;32.80;48.80;;;;;;4995398;28;20030;-75
2023/06/21 09:40:54;;;;;;;21.50;17.05;;;32.70;48.40;;;;;;4995059;28;20448;-75
2023/06/21 09:43:22;;;;;;;17.42;14.88;;;32.60;49.00;;;;;;5071975;28;20036;-70
2023/06/21 09:46:08;;;;;;;25.88;18.65;;;32.60;48.90;;;;;;5075148;28;20127;-76
2023/06/21 09:48:36;;;;;;;19.08;14.77;;;32.60;48.00;;;;;;5075184;28;20036;-70
2023/06/21 09:51:10;;;;;;;22.75;17.73;;;32.60;49.10;;;;;;5075977;28;20384;-70
2023/06/21 09:53:36;;;;;;;14.27;12.52;;;32.70;49.10;;;;;;5075407;28;20027;-71
2023/06/21 09:56:03;;;;;;;15.48;12.52;;;32.80;49.10;;;;;;5076155;28;20160;-70
2023/06/21 09:58:34;;;;;;;14.85;12.15;;;32.90;49.00;;;;;;5076375;28;20118;-71
2023/06/21 10:01:04;;;;;;;14.57;12.35;;;33.00;48.80;;;;;;5058326;28;20051;-71
2023/06/21 10:08:29;;;;;;;13.80;10.27;;;33.00;48.80;;;;;;5076131;28;20021;-74
2023/06/21 10:10:56;;;;;;;11.68;9.05;;;33.10;48.40;;;;;;5075920;28;20031;-74
2023/06/21 10:13:26;;;;;;;11.98;9.23;;;33.10;48.30;;;;;;5076073;28;20028;-71
2023/06/21 10:15:54;;;;;;;12.80;9.20;;;33.20;48.20;;;;;;5074573;28;20122;-76
2023/06/21 10:18:20;;;;;;;14.10;10.27;;;33.30;48.20;;;;;;5075474;28;20025;-75
2023/06/21 10:20:54;;;;;;;11.85;9.90;;;33.50;48.00;;;;;;5075756;28;20044;-74
2023/06/21 10:23:21;;;;;;;12.68;9.77;;;33.50;47.70;;;;;;5075428;28;20111;-75
2023/06/21 10:25:51;;;;;;;14.77;10.07;;;33.50;47.60;;;;;;5060075;28;20085;-71
2023/06/21 10:28:23;;;;;;;12.60;10.57;;;33.50;47.90;;;;;;5038466;28;20037;-71
2023/06/21 10:30:53;;;;;;;13.60;11.02;;;33.50;47.70;;;;;;5055323;28;20029;-71
2023/06/21 10:33:20;;;;;;;13.45;10.85;;;33.50;47.60;;;;;;5021556;28;20029;-74
2023/06/21 10:35:48;;;;;;;15.20;11.50;;;33.50;47.50;;;;;;5055206;28;20017;-75
2023/06/21 10:38:33;;;;;;;18.58;13.60;;;33.40;47.40;;;;;;5037596;28;20039;-75
2023/06/21 10:41:00;;;;;;;14.88;12.55;;;33.30;46.60;;;;;;5055194;28;20311;-72
2023/06/21 10:43:28;;;;;;;18.23;14.10;;;33.10;47.20;;;;;;5037702;28;20081;-75
2023/06/21 10:45:57;;;;;;;18.30;14.23;;;32.90;47.30;;;;;;5055314;28;20112;-71
2023/06/21 10:48:26;;;;;;;15.68;12.25;;;32.80;47.50;;;;;;5054889;28;20146;-75
2023/06/21 10:50:53;;;;;;;17.48;13.30;;;32.70;47.90;;;;;;5055290;28;20029;-76
2023/06/21 10:53:19;;;;;;;17.55;12.70;;;32.60;48.00;;;;;;5054886;28;20128;-74
2023/06/21 10:56:07;;;;;;;15.48;10.85;;;32.70;48.20;;;;;;5055209;28;20021;-70
2023/06/21 10:58:33;;;;;;;15.63;11.15;;;32.70;48.30;;;;;;5037903;28;20319;-74
2023/06/21 11:01:04;;;;;;;14.25;11.82;;;32.80;48.50;;;;;;5054896;28;20435;-75
2023/06/21 11:03:30;;;;;;;16.33;13.07;;;32.90;48.50;;;;;;5054821;28;20033;-74
2023/06/21 11:08:37;;;;;;;19.48;16.70;;;33.10;47.70;;;;;;5055337;28;20159;-71
2023/06/21 11:11:03;;;;;;;16.08;12.35;;;33.00;47.70;;;;;;5054905;28;20060;-70
2023/06/21 11:13:36;;;;;;;13.35;11.38;;;33.00;48.20;;;;;;5054828;28;20065;-73
2023/06/21 11:16:17;;;;;;;;;;;33.00;48.30;;;;;;5055235;28;20481;-73
2023/06/21 11:19:07;;;;;;;18.55;16.00;;;33.10;48.40;;;;;;5037259;28;19927;-71
2023/06/21 11:21:34;;;;;;;18.45;13.35;;;33.20;46.50;;;;;;5054018;28;20057;-74
2023/06/21 11:24:05;;;;;;;14.52;12.85;;;33.30;47.50;;;;;;5052680;28;20025;-74
2023/06/21 11:26:57;;;;;;;14.00;12.32;;;33.40;47.40;;;;;;5052538;28;20059;-72
2023/06/21 11:29:37;;;;;;;15.55;11.25;;;33.50;47.60;;;;;;5035028;28;20057;-72
2023/06/21 11:32:11;;;;;;;11.98;10.30;;;33.50;47.40;;;;;;5052625;28;20036;-73
2023/06/21 11:34:51;;;;;;;19.45;15.10;;;33.60;47.50;;;;;;5052794;28;20044;-72
2023/06/21 11:37:41;;;;;;;18.05;12.48;;;33.60;46.10;;;;;;5054910;28;20024;-75
2023/06/21 11:40:15;;;;;;;13.35;10.85;;;33.50;46.80;;;;;;5058783;28;20029;-71
2023/06/21 11:42:46;;;;;;;16.25;12.00;;;33.50;47.30;;;;;;5058785;28;20043;-71
2023/06/21 11:45:22;;;;;;;12.85;10.25;;;33.50;47.30;;;;;;5059109;28;20048;-76
2023/06/21 11:48:05;;;;;;;15.57;11.75;;;33.50;47.50;;;;;;5058522;28;20029;-71
2023/06/21 11:50:46;;;;;;;12.10;10.32;;;33.60;47.50;;;;;;5058539;28;20067;-71
2023/06/21 11:53:28;;;;;;;14.65;10.55;;;33.70;47.30;;;;;;5058708;28;20017;-74
2023/06/21 11:55:59;;;;;;;15.43;11.47;;;33.80;47.20;;;;;;5042216;28;20037;-72
2023/06/21 11:58:29;;;;;;;11.65;9.73;;;33.90;47.20;;;;;;5058169;28;20094;-74
2023/06/21 12:00:56;;;;;;;19.38;14.63;;;33.90;47.10;;;;;;5058158;28;20032;-71
2023/06/21 12:03:26;;;;;;;16.27;13.75;;;33.90;46.50;;;;;;5058346;28;20032;-70
2023/06/21 12:05:57;;;;;;;22.27;13.93;;;33.90;46.60;;;;;;5058555;28;20071;-75
2023/06/21 12:08:30;;;;;;;19.85;15.60;;;33.90;46.40;;;;;;5040362;28;20041;-75
2023/06/21 12:11:07;;;;;;;17.60;13.95;;;33.90;45.40;;;;;;5058517;28;20044;-70
2023/06/21 12:13:35;;;;;;;17.67;13.88;;;33.90;46.20;;;;;;5041421;28;20057;-70
2023/06/21 12:16:04;;;;;;;15.07;11.60;;;33.90;46.70;;;;;;5057942;28;20027;-70
2023/06/21 12:18:33;;;;;;;18.80;14.00;;;33.90;46.70;;;;;;5058071;28;20029;-75
2023/06/21 12:21:00;;;;;;;15.02;11.00;;;33.90;46.80;;;;;;5023995;28;20063;-70
2023/06/21 12:23:28;;;;;;;14.07;11.05;;;33.90;46.70;;;;;;5040215;28;20067;-70
2023/06/21 12:26:21;;;;;;;11.98;10.10;;;34.00;46.90;;;;;;5066935;28;20489;-70
2023/06/21 12:28:51;;;;;;;15.60;11.40;;;34.00;46.80;;;;;;5016435;28;20072;-71
2023/06/21 12:31:18;;;;;;;14.43;10.48;;;34.10;46.80;;;;;;5016520;28;20172;-72
2023/06/21 12:33:44;;;;;;;16.52;12.32;;;34.10;46.70;;;;;;4999759;28;20392;-72
2023/06/21 12:36:18;;;;;;;13.07;10.40;;;34.10;46.70;;;;;;5016503;28;20186;-70
2023/06/21 12:39:05;;;;;;;12.68;10.52;;;34.20;46.60;;;;;;5015905;28;20057;-72
2023/06/21 12:41:33;;;;;;;11.57;9.75;;;34.30;46.50;;;;;;5015888;28;20041;-70
2023/06/21 12:44:05;;;;;;;18.85;14.57;;;34.40;46.50;;;;;;5015819;28;20038;-74
2023/06/21 12:46:40;;;;;;;19.60;13.88;;;34.40;45.80;;;;;;4999787;28;20113;-70